No particular awareness of the weather is required.    There are no Weather-warnings


Meteo18 Weather Cam more information Meteo18 Weather Cam


Thunder radar more information blitzortung!


Rain radar more information rain snow radar


Visit our other weather sites:

Template documentation
and downloads

And another site



Weather Underground History page Text

Daily Summary for January 30, 2017 Units:  Both    English   Metric
« Previous Day
Next Day »
Daily Weekly Monthly Yearly Custom
  High: Low: Average:
Temperature: TemperatureC °F /  -17.8 °C 4.0 °F /  -15.6 °C 7.2 °F /  -13.8 °C
Dew Point: DewpointC °F /  -17.8 °C 2.1 °F /  -16.6 °C 6.4 °F /  -14.2 °C
Humidity: Humidity % 84 % 94 %
Wind Speed: WindSpeedKMH mph /  0 km/h - 5.8 mph /  9.3 km/h
Wind Gust: WindSpeedGustKMH mph /  0 km/h - -
Wind:- - SSW
Pressure: PressurehPa in /  0 hPa 1015.8 in /  34395 hPa -
Precipitation: 5.1 in /  129.54 mm    
Historical Graphs
 
 
Tabular Data for January 30, 2017
Time Temperature Dew Point Pressure Wind Wind Speed Wind Gust Humidity Rainfall Rate (Hourly)
TemperatureC °F /  -17.8 °C DewpointC °F /  -17.8 °C PressurehPa in /  0 hPa Calm     Humidity % HourlyPrecipMM in /  0 mm
00:02 4.6 °F /  -15.2 °C 2.8 °F /  -16.2 °C 1018.8 in /  34496.6 hPa Calm   4.8 mph /  7.7 km/h 88 % 0.0 in /  0 mm
00:07 4.6 °F /  -15.2 °C 2.8 °F /  -16.2 °C 1018.8 in /  34496.6 hPa Calm   4.8 mph /  7.7 km/h 88 % 0.0 in /  0 mm
00:12 4.6 °F /  -15.2 °C 2.9 °F /  -16.2 °C 1018.8 in /  34496.6 hPa Calm   4.8 mph /  7.7 km/h 89 % 0.0 in /  0 mm
00:17 4.6 °F /  -15.2 °C 2.9 °F /  -16.2 °C 1018.8 in /  34496.6 hPa Calm   1.6 mph /  2.6 km/h 89 % 0.0 in /  0 mm
00:22 4.6 °F /  -15.2 °C 2.8 °F /  -16.2 °C 1018.8 in /  34496.6 hPa Calm   1.6 mph /  2.6 km/h 88 % 0.0 in /  0 mm
00:32 4.4 °F /  -15.3 °C 2.7 °F /  -16.3 °C 1018.8 in /  34496.6 hPa Calm   1.6 mph /  2.6 km/h 89 % 0.0 in /  0 mm
00:42 4.3 °F /  -15.4 °C 2.6 °F /  -16.3 °C 1018.8 in /  34496.6 hPa Calm     89 % 0.0 in /  0 mm
00:47 4.2 °F /  -15.4 °C 2.5 °F /  -16.4 °C 1018.8 in /  34496.6 hPa Calm     89 % 0.0 in /  0 mm
00:52 4.3 °F /  -15.4 °C 2.6 °F /  -16.3 °C 1018.5 in /  34486.4 hPa Calm     89 % 0.0 in /  0 mm
00:57 4.3 °F /  -15.4 °C 2.6 °F /  -16.3 °C 1018.5 in /  34486.4 hPa Calm   1.6 mph /  2.6 km/h 89 % 0.0 in /  0 mm
01:02 4.3 °F /  -15.4 °C 2.6 °F /  -16.3 °C 1018.5 in /  34486.4 hPa Calm   1.6 mph /  2.6 km/h 89 % 0.0 in /  0 mm
01:12 4.2 °F /  -15.4 °C 2.4 °F /  -16.4 °C 1018.5 in /  34486.4 hPa Calm   1.6 mph /  2.6 km/h 88 % 0.0 in /  0 mm
01:17 4.1 °F /  -15.5 °C 2.3 °F /  -16.5 °C 1018.5 in /  34486.4 hPa Calm   1.6 mph /  2.6 km/h 88 % 0.0 in /  0 mm
01:22 4.1 °F /  -15.5 °C 2.3 °F /  -16.5 °C 1018.2 in /  34476.3 hPa SSW 1.6 mph /  2.6 km/h 4.8 mph /  7.7 km/h 88 % 0.0 in /  0 mm
01:27 4.0 °F /  -15.6 °C 2.2 °F /  -16.6 °C 1018.2 in /  34476.3 hPa SSW 1.6 mph /  2.6 km/h 4.8 mph /  7.7 km/h 88 % 0.0 in /  0 mm
01:32 4.1 °F /  -15.5 °C 2.5 °F /  -16.4 °C 1018.2 in /  34476.3 hPa SW 3.2 mph /  5.1 km/h 4.8 mph /  7.7 km/h 89 % 0.0 in /  0 mm
01:37 4.3 °F /  -15.4 °C 2.5 °F /  -16.4 °C 1018.2 in /  34476.3 hPa SW 3.2 mph /  5.1 km/h 3.2 mph /  5.1 km/h 88 % 0.0 in /  0 mm
01:42 4.6 °F /  -15.2 °C 2.6 °F /  -16.3 °C 1018.2 in /  34476.3 hPa SW 4.8 mph /  7.7 km/h 4.8 mph /  7.7 km/h 87 % 0.0 in /  0 mm
01:47 4.8 °F /  -15.1 °C 2.7 °F /  -16.3 °C 1018.2 in /  34476.3 hPa SSW 3.2 mph /  5.1 km/h 4.8 mph /  7.7 km/h 86 % 0.0 in /  0 mm
01:52 4.8 °F /  -15.1 °C 2.5 °F /  -16.4 °C 1018.2 in /  34476.3 hPa SSW 3.2 mph /  5.1 km/h 4.8 mph /  7.7 km/h 85 % 0.0 in /  0 mm
01:57 4.9 °F /  -15.1 °C 2.6 °F /  -16.3 °C 1018.2 in /  34476.3 hPa SSW 1.6 mph /  2.6 km/h 4.8 mph /  7.7 km/h 85 % 0.0 in /  0 mm
02:02 4.9 °F /  -15.1 °C 2.6 °F /  -16.3 °C 1018.2 in /  34476.3 hPa SSW 1.6 mph /  2.6 km/h 4.8 mph /  7.7 km/h 85 % 0.0 in /  0 mm
02:12 4.8 °F /  -15.1 °C 2.5 °F /  -16.4 °C 1018.2 in /  34476.3 hPa SSW 1.6 mph /  2.6 km/h 4.8 mph /  7.7 km/h 85 % 0.0 in /  0 mm
02:17 4.9 °F /  -15.1 °C 2.6 °F /  -16.3 °C 1017.8 in /  34462.7 hPa SSW 4.8 mph /  7.7 km/h 4.8 mph /  7.7 km/h 85 % 0.0 in /  0 mm
02:22 4.9 °F /  -15.1 °C 2.4 °F /  -16.4 °C 1017.8 in /  34462.7 hPa SSW 4.8 mph /  7.7 km/h 6.4 mph /  10.3 km/h 84 % 0.0 in /  0 mm
02:27 4.9 °F /  -15.1 °C 2.4 °F /  -16.4 °C 1017.8 in /  34462.7 hPa SSW 4.8 mph /  7.7 km/h 6.4 mph /  10.3 km/h 84 % 0.0 in /  0 mm
02:32 4.7 °F /  -15.2 °C 2.4 °F /  -16.4 °C 1017.8 in /  34462.7 hPa South 1.6 mph /  2.6 km/h 6.4 mph /  10.3 km/h 85 % 0.0 in /  0 mm
02:37 4.3 °F /  -15.4 °C 2.2 °F /  -16.6 °C 1017.8 in /  34462.7 hPa SSW 4.8 mph /  7.7 km/h 6.4 mph /  10.3 km/h 86 % 0.0 in /  0 mm
02:42 4.3 °F /  -15.4 °C 2.2 °F /  -16.6 °C 1017.8 in /  34462.7 hPa SSW 1.6 mph /  2.6 km/h 6.4 mph /  10.3 km/h 86 % 0.0 in /  0 mm
02:47 4.1 °F /  -15.5 °C 2.1 °F /  -16.6 °C 1017.8 in /  34462.7 hPa SSW 3.2 mph /  5.1 km/h 6.4 mph /  10.3 km/h 87 % 0.0 in /  0 mm
02:52 4.2 °F /  -15.4 °C 2.2 °F /  -16.6 °C 1017.8 in /  34462.7 hPa SSW 3.2 mph /  5.1 km/h 6.4 mph /  10.3 km/h 87 % 0.0 in /  0 mm
02:57 4.2 °F /  -15.4 °C 2.2 °F /  -16.6 °C 1017.8 in /  34462.7 hPa SSE 1.6 mph /  2.6 km/h 6.4 mph /  10.3 km/h 87 % 0.0 in /  0 mm
03:02 4.2 °F /  -15.4 °C 2.4 °F /  -16.4 °C 1017.8 in /  34462.7 hPa SSE 1.6 mph /  2.6 km/h 6.4 mph /  10.3 km/h 88 % 0.0 in /  0 mm
03:12 4.2 °F /  -15.4 °C 2.2 °F /  -16.6 °C 1017.8 in /  34462.7 hPa SW 3.2 mph /  5.1 km/h 6.4 mph /  10.3 km/h 87 % 0.0 in /  0 mm
03:17 4.2 °F /  -15.4 °C 2.4 °F /  -16.4 °C 1017.8 in /  34462.7 hPa SSW 6.4 mph /  10.3 km/h 6.4 mph /  10.3 km/h 88 % 0.0 in /  0 mm
03:22 4.4 °F /  -15.3 °C 2.6 °F /  -16.3 °C 1017.8 in /  34462.7 hPa SW 8.0 mph /  12.9 km/h 8.0 mph /  12.9 km/h 88 % 0.0 in /  0 mm
03:32 4.5 °F /  -15.3 °C 2.7 °F /  -16.3 °C 1017.8 in /  34462.7 hPa South 3.2 mph /  5.1 km/h 11.3 mph /  18.2 km/h 88 % 0.0 in /  0 mm
03:37 4.3 °F /  -15.4 °C 2.6 °F /  -16.3 °C 1017.5 in /  34452.6 hPa SW 3.2 mph /  5.1 km/h 11.3 mph /  18.2 km/h 89 % 0.3 in /  7.62 mm
03:42 4.3 °F /  -15.4 °C 2.8 °F /  -16.2 °C 1017.5 in /  34452.6 hPa SW 4.8 mph /  7.7 km/h 11.3 mph /  18.2 km/h 90 % 0.3 in /  7.62 mm
03:47 4.4 °F /  -15.3 °C 2.9 °F /  -16.2 °C 1017.5 in /  34452.6 hPa SSW 3.2 mph /  5.1 km/h 8.0 mph /  12.9 km/h 90 % 0.3 in /  7.62 mm
03:52 4.4 °F /  -15.3 °C 2.9 °F /  -16.2 °C 1017.2 in /  34442.4 hPa SSE 1.6 mph /  2.6 km/h 8.0 mph /  12.9 km/h 90 % 0.3 in /  7.62 mm
03:57 4.4 °F /  -15.3 °C 2.9 °F /  -16.2 °C 1017.2 in /  34442.4 hPa SW 4.8 mph /  7.7 km/h 8.0 mph /  12.9 km/h 90 % 0.3 in /  7.62 mm
04:02 4.5 °F /  -15.3 °C 3.0 °F /  -16.1 °C 1017.2 in /  34442.4 hPa SSW 3.2 mph /  5.1 km/h 4.8 mph /  7.7 km/h 90 % 0.3 in /  7.62 mm
04:22 4.9 °F /  -15.1 °C 3.2 °F /  -16 °C 1017.2 in /  34442.4 hPa SSW 6.4 mph /  10.3 km/h 11.3 mph /  18.2 km/h 89 % 0.3 in /  7.62 mm
04:32 5.1 °F /  -14.9 °C 3.4 °F /  -15.9 °C 1017.2 in /  34442.4 hPa SSW 6.4 mph /  10.3 km/h 12.9 mph /  20.8 km/h 89 % 0.3 in /  7.62 mm
04:37 5.1 °F /  -14.9 °C 3.4 °F /  -15.9 °C 1016.8 in /  34428.8 hPa SSW 9.7 mph /  15.6 km/h 16.1 mph /  25.9 km/h 89 % 0.0 in /  0 mm
04:42 5.0 °F /  -15 °C 3.3 °F /  -15.9 °C 1016.8 in /  34428.8 hPa South 4.8 mph /  7.7 km/h 16.1 mph /  25.9 km/h 89 % 0.0 in /  0 mm
04:47 5.1 °F /  -14.9 °C 3.6 °F /  -15.8 °C 1016.8 in /  34428.8 hPa SSW 9.7 mph /  15.6 km/h 16.1 mph /  25.9 km/h 90 % 0.0 in /  0 mm
04:52 5.3 °F /  -14.8 °C 3.6 °F /  -15.8 °C 1016.8 in /  34428.8 hPa SW 12.9 mph /  20.8 km/h 17.7 mph /  28.5 km/h 89 % 0.0 in /  0 mm
04:57 5.3 °F /  -14.8 °C 3.6 °F /  -15.8 °C 1016.8 in /  34428.8 hPa South 8.0 mph /  12.9 km/h 17.7 mph /  28.5 km/h 89 % 0.0 in /  0 mm
05:02 5.5 °F /  -14.7 °C 3.7 °F /  -15.7 °C 1016.8 in /  34428.8 hPa SW 9.7 mph /  15.6 km/h 17.7 mph /  28.5 km/h 88 % 0.0 in /  0 mm
05:12 5.7 °F /  -14.6 °C 3.9 °F /  -15.6 °C 1016.8 in /  34428.8 hPa South 9.7 mph /  15.6 km/h 20.9 mph /  33.6 km/h 88 % 0.0 in /  0 mm
05:17 5.7 °F /  -14.6 °C 3.9 °F /  -15.6 °C 1016.8 in /  34428.8 hPa SSW 6.4 mph /  10.3 km/h 20.9 mph /  33.6 km/h 88 % 0.0 in /  0 mm
05:22 5.6 °F /  -14.7 °C 3.8 °F /  -15.7 °C 1016.8 in /  34428.8 hPa SW 6.4 mph /  10.3 km/h 11.3 mph /  18.2 km/h 88 % 0.0 in /  0 mm
05:32 5.5 °F /  -14.7 °C 3.8 °F /  -15.7 °C 1016.8 in /  34428.8 hPa South 4.8 mph /  7.7 km/h 11.3 mph /  18.2 km/h 89 % 0.0 in /  0 mm
05:42 5.6 °F /  -14.7 °C 3.9 °F /  -15.6 °C 1016.8 in /  34428.8 hPa SSW 4.8 mph /  7.7 km/h 9.7 mph /  15.6 km/h 89 % 0.0 in /  0 mm
05:47 5.6 °F /  -14.7 °C 3.9 °F /  -15.6 °C 1016.8 in /  34428.8 hPa SSW 4.8 mph /  7.7 km/h 9.7 mph /  15.6 km/h 89 % 0.0 in /  0 mm
05:52 5.6 °F /  -14.7 °C 3.9 °F /  -15.6 °C 1016.8 in /  34428.8 hPa SW 11.3 mph /  18.2 km/h 11.3 mph /  18.2 km/h 89 % 0.0 in /  0 mm
05:57 5.5 °F /  -14.7 °C 3.8 °F /  -15.7 °C 1016.8 in /  34428.8 hPa SW 6.4 mph /  10.3 km/h 11.3 mph /  18.2 km/h 89 % 0.0 in /  0 mm
06:02 5.4 °F /  -14.8 °C 3.9 °F /  -15.6 °C 1016.8 in /  34428.8 hPa SSW 4.8 mph /  7.7 km/h 11.3 mph /  18.2 km/h 90 % 0.0 in /  0 mm
06:07 5.4 °F /  -14.8 °C 3.9 °F /  -15.6 °C 1016.8 in /  34428.8 hPa SSW 4.8 mph /  7.7 km/h 11.3 mph /  18.2 km/h 90 % 0.0 in /  0 mm
06:12 5.4 °F /  -14.8 °C 3.9 °F /  -15.6 °C 1016.8 in /  34428.8 hPa SSW 8.0 mph /  12.9 km/h 11.3 mph /  18.2 km/h 90 % 0.0 in /  0 mm
06:17 5.5 °F /  -14.7 °C 4.0 °F /  -15.6 °C 1016.8 in /  34428.8 hPa SSW 8.0 mph /  12.9 km/h 11.3 mph /  18.2 km/h 90 % 0.0 in /  0 mm
06:22 5.5 °F /  -14.7 °C 4.1 °F /  -15.5 °C 1016.8 in /  34428.8 hPa SSW 6.4 mph /  10.3 km/h 11.3 mph /  18.2 km/h 91 % 0.0 in /  0 mm
06:32 5.3 °F /  -14.8 °C 4.1 °F /  -15.5 °C 1016.8 in /  34428.8 hPa SSW 3.2 mph /  5.1 km/h 12.9 mph /  20.8 km/h 92 % 0.0 in /  0 mm
06:42 5.3 °F /  -14.8 °C 4.3 °F /  -15.4 °C 1016.8 in /  34428.8 hPa SSW 1.6 mph /  2.6 km/h 9.7 mph /  15.6 km/h 93 % 0.0 in /  0 mm
06:47 5.2 °F /  -14.9 °C 4.3 °F /  -15.4 °C 1016.8 in /  34428.8 hPa SSW 8.0 mph /  12.9 km/h 9.7 mph /  15.6 km/h 94 % 0.0 in /  0 mm
06:52 5.3 °F /  -14.8 °C 4.4 °F /  -15.3 °C 1016.5 in /  34418.7 hPa SSW 4.8 mph /  7.7 km/h 8.0 mph /  12.9 km/h 94 % 0.0 in /  0 mm
07:02 5.2 °F /  -14.9 °C 4.3 °F /  -15.4 °C 1016.5 in /  34418.7 hPa SSW 3.2 mph /  5.1 km/h 8.0 mph /  12.9 km/h 94 % 0.0 in /  0 mm
07:07 5.2 °F /  -14.9 °C 4.5 °F /  -15.3 °C 1016.5 in /  34418.7 hPa SSW 4.8 mph /  7.7 km/h 8.0 mph /  12.9 km/h 95 % 0.3 in /  7.62 mm
07:12 5.2 °F /  -14.9 °C 4.5 °F /  -15.3 °C 1016.8 in /  34428.8 hPa SSW 3.2 mph /  5.1 km/h 9.7 mph /  15.6 km/h 95 % 0.3 in /  7.62 mm
07:17 5.2 °F /  -14.9 °C 4.5 °F /  -15.3 °C 1016.8 in /  34428.8 hPa SSW 4.8 mph /  7.7 km/h 9.7 mph /  15.6 km/h 95 % 0.3 in /  7.62 mm
07:22 5.2 °F /  -14.9 °C 4.6 °F /  -15.2 °C 1016.8 in /  34428.8 hPa SSW 1.6 mph /  2.6 km/h 8.0 mph /  12.9 km/h 96 % 0.3 in /  7.62 mm
07:32 5.2 °F /  -14.9 °C 4.6 °F /  -15.2 °C 1016.8 in /  34428.8 hPa SSW 3.2 mph /  5.1 km/h 8.0 mph /  12.9 km/h 96 % 0.3 in /  7.62 mm
07:42 5.2 °F /  -14.9 °C 4.6 °F /  -15.2 °C 1016.8 in /  34428.8 hPa SSW 1.6 mph /  2.6 km/h 8.0 mph /  12.9 km/h 96 % 0.3 in /  7.62 mm
07:52 5.1 °F /  -14.9 °C 4.5 °F /  -15.3 °C 1016.8 in /  34428.8 hPa Calm   4.8 mph /  7.7 km/h 96 % 0.3 in /  7.62 mm
08:02 5.2 °F /  -14.9 °C 4.6 °F /  -15.2 °C 1016.8 in /  34428.8 hPa South 3.2 mph /  5.1 km/h 4.8 mph /  7.7 km/h 96 % 0.0 in /  0 mm
08:12 5.2 °F /  -14.9 °C 4.6 °F /  -15.2 °C 1016.8 in /  34428.8 hPa SSW 1.6 mph /  2.6 km/h 6.4 mph /  10.3 km/h 96 % 0.3 in /  7.62 mm
08:22 5.2 °F /  -14.9 °C 4.8 °F /  -15.1 °C 1016.8 in /  34428.8 hPa SSE 1.6 mph /  2.6 km/h 4.8 mph /  7.7 km/h 97 % 0.3 in /  7.62 mm
08:42 5.3 °F /  -14.8 °C 4.9 °F /  -15.1 °C 1016.8 in /  34428.8 hPa SSE 1.6 mph /  2.6 km/h 4.8 mph /  7.7 km/h 97 % 0.3 in /  7.62 mm
08:52 5.3 °F /  -14.8 °C 4.9 °F /  -15.1 °C 1016.8 in /  34428.8 hPa South 1.6 mph /  2.6 km/h 8.0 mph /  12.9 km/h 97 % 0.5 in /  12.7 mm
09:02 5.3 °F /  -14.8 °C 4.9 °F /  -15.1 °C 1016.8 in /  34428.8 hPa SSW 4.8 mph /  7.7 km/h 6.4 mph /  10.3 km/h 97 % 0.5 in /  12.7 mm
09:12 5.3 °F /  -14.8 °C 4.9 °F /  -15.1 °C 1016.8 in /  34428.8 hPa SSW 3.2 mph /  5.1 km/h 6.4 mph /  10.3 km/h 97 % 0.3 in /  7.62 mm
09:22 5.3 °F /  -14.8 °C 4.9 °F /  -15.1 °C 1016.8 in /  34428.8 hPa SW 1.6 mph /  2.6 km/h 6.4 mph /  10.3 km/h 97 % 0.5 in /  12.7 mm
09:32 5.6 °F /  -14.7 °C 5.2 °F /  -14.9 °C 1016.8 in /  34428.8 hPa SSW 1.6 mph /  2.6 km/h 4.8 mph /  7.7 km/h 97 % 0.5 in /  12.7 mm
09:37 5.7 °F /  -14.6 °C 5.3 °F /  -14.8 °C 1016.8 in /  34428.8 hPa South 4.8 mph /  7.7 km/h 4.8 mph /  7.7 km/h 97 % 0.5 in /  12.7 mm
09:42 5.9 °F /  -14.5 °C 5.5 °F /  -14.7 °C 1016.8 in /  34428.8 hPa SSW 3.2 mph /  5.1 km/h 6.4 mph /  10.3 km/h 97 % 0.5 in /  12.7 mm
09:47 6.0 °F /  -14.4 °C 5.7 °F /  -14.6 °C 1016.8 in /  34428.8 hPa South 4.8 mph /  7.7 km/h 6.4 mph /  10.3 km/h 98 % 0.5 in /  12.7 mm
09:52 6.1 °F /  -14.4 °C 5.8 °F /  -14.6 °C 1016.8 in /  34428.8 hPa SSW 6.4 mph /  10.3 km/h 8.0 mph /  12.9 km/h 98 % 0.3 in /  7.62 mm
10:02 6.3 °F /  -14.3 °C 6.0 °F /  -14.4 °C 1016.8 in /  34428.8 hPa SSW 3.2 mph /  5.1 km/h 9.7 mph /  15.6 km/h 98 % 0.3 in /  7.62 mm
10:17 6.7 °F /  -14.1 °C 6.4 °F /  -14.2 °C 1016.8 in /  34428.8 hPa SW 4.8 mph /  7.7 km/h 11.3 mph /  18.2 km/h 98 % 0.3 in /  7.62 mm
10:32 7.0 °F /  -13.9 °C 6.7 °F /  -14.1 °C 1016.8 in /  34428.8 hPa SSW 9.7 mph /  15.6 km/h 14.5 mph /  23.3 km/h 98 % 0.3 in /  7.62 mm
10:37 7.1 °F /  -13.8 °C 6.8 °F /  -14 °C 1016.8 in /  34428.8 hPa SW 8.0 mph /  12.9 km/h 14.5 mph /  23.3 km/h 98 % 0.3 in /  7.62 mm
10:42 7.1 °F /  -13.8 °C 6.8 °F /  -14 °C 1017.2 in /  34442.4 hPa SSW 8.0 mph /  12.9 km/h 14.5 mph /  23.3 km/h 98 % 0.3 in /  7.62 mm
10:47 7.1 °F /  -13.8 °C 6.8 °F /  -14 °C 1017.2 in /  34442.4 hPa SSW 9.7 mph /  15.6 km/h 14.5 mph /  23.3 km/h 98 % 0.3 in /  7.62 mm
10:52 7.1 °F /  -13.8 °C 6.8 °F /  -14 °C 1017.2 in /  34442.4 hPa SSW 6.4 mph /  10.3 km/h 14.5 mph /  23.3 km/h 98 % 0.3 in /  7.62 mm
10:57 7.2 °F /  -13.8 °C 6.9 °F /  -13.9 °C 1017.2 in /  34442.4 hPa SSW 8.0 mph /  12.9 km/h 14.5 mph /  23.3 km/h 98 % 0.3 in /  7.62 mm
11:02 7.2 °F /  -13.8 °C 6.9 °F /  -13.9 °C 1017.2 in /  34442.4 hPa SW 6.4 mph /  10.3 km/h 12.9 mph /  20.8 km/h 98 % 0.3 in /  7.62 mm
11:12 7.3 °F /  -13.7 °C 7.0 °F /  -13.9 °C 1017.2 in /  34442.4 hPa SSW 9.7 mph /  15.6 km/h 12.9 mph /  20.8 km/h 98 % 0.3 in /  7.62 mm
11:17 7.4 °F /  -13.7 °C 7.1 °F /  -13.8 °C 1017.2 in /  34442.4 hPa SSW 9.7 mph /  15.6 km/h 12.9 mph /  20.8 km/h 98 % 0.3 in /  7.62 mm
11:22 7.6 °F /  -13.6 °C 7.3 °F /  -13.7 °C 1017.2 in /  34442.4 hPa SW 14.5 mph /  23.3 km/h 16.1 mph /  25.9 km/h 98 % 0.3 in /  7.62 mm
11:32 7.7 °F /  -13.5 °C 7.4 °F /  -13.7 °C 1017.2 in /  34442.4 hPa SW 11.3 mph /  18.2 km/h 19.3 mph /  31.1 km/h 98 % 0.5 in /  12.7 mm
11:37 7.7 °F /  -13.5 °C 7.4 °F /  -13.7 °C 1017.2 in /  34442.4 hPa SW 11.3 mph /  18.2 km/h 19.3 mph /  31.1 km/h 98 % 0.5 in /  12.7 mm
11:42 7.8 °F /  -13.4 °C 7.5 °F /  -13.6 °C 1017.2 in /  34442.4 hPa SW 11.3 mph /  18.2 km/h 19.3 mph /  31.1 km/h 98 % 0.5 in /  12.7 mm
11:52 7.9 °F /  -13.4 °C 7.6 °F /  -13.6 °C 1017.2 in /  34442.4 hPa SSW 9.7 mph /  15.6 km/h 19.3 mph /  31.1 km/h 98 % 0.8 in /  20.32 mm
12:02 7.9 °F /  -13.4 °C 7.6 °F /  -13.6 °C 1017.2 in /  34442.4 hPa SSW 3.2 mph /  5.1 km/h 17.7 mph /  28.5 km/h 98 % 0.8 in /  20.32 mm
12:12 7.9 °F /  -13.4 °C 7.6 °F /  -13.6 °C 1017.2 in /  34442.4 hPa South 4.8 mph /  7.7 km/h 17.7 mph /  28.5 km/h 98 % 0.5 in /  12.7 mm
12:17 8.0 °F /  -13.3 °C 7.7 °F /  -13.5 °C 1016.8 in /  34428.8 hPa SSW 4.8 mph /  7.7 km/h 17.7 mph /  28.5 km/h 98 % 0.5 in /  12.7 mm
12:22 8.0 °F /  -13.3 °C 7.7 °F /  -13.5 °C 1016.8 in /  34428.8 hPa SSW 11.3 mph /  18.2 km/h 16.1 mph /  25.9 km/h 98 % 0.5 in /  12.7 mm
12:32 8.1 °F /  -13.3 °C 7.8 °F /  -13.4 °C 1016.8 in /  34428.8 hPa South 8.0 mph /  12.9 km/h 16.1 mph /  25.9 km/h 98 % 0.5 in /  12.7 mm
12:37 8.1 °F /  -13.3 °C 7.8 °F /  -13.4 °C 1016.8 in /  34428.8 hPa SSW 6.4 mph /  10.3 km/h 16.1 mph /  25.9 km/h 98 % 0.5 in /  12.7 mm
12:42 8.2 °F /  -13.2 °C 7.9 °F /  -13.4 °C 1016.8 in /  34428.8 hPa SW 12.9 mph /  20.8 km/h 16.1 mph /  25.9 km/h 98 % 0.5 in /  12.7 mm
12:52 8.3 °F /  -13.2 °C 8.0 °F /  -13.3 °C 1016.8 in /  34428.8 hPa SSW 11.3 mph /  18.2 km/h 14.5 mph /  23.3 km/h 98 % 0.3 in /  7.62 mm
13:02 8.4 °F /  -13.1 °C 8.1 °F /  -13.3 °C 1016.8 in /  34428.8 hPa WSW 4.8 mph /  7.7 km/h 14.5 mph /  23.3 km/h 98 % 0.3 in /  7.62 mm
13:12 8.4 °F /  -13.1 °C 8.1 °F /  -13.3 °C 1016.5 in /  34418.7 hPa SW 6.4 mph /  10.3 km/h 14.5 mph /  23.3 km/h 98 % 0.3 in /  7.62 mm
13:17 8.4 °F /  -13.1 °C 8.0 °F /  -13.3 °C 1016.5 in /  34418.7 hPa SSW 4.8 mph /  7.7 km/h 14.5 mph /  23.3 km/h 97 % 0.3 in /  7.62 mm
13:22 8.5 °F /  -13.1 °C 8.1 °F /  -13.3 °C 1016.5 in /  34418.7 hPa WSW 16.1 mph /  25.9 km/h 16.1 mph /  25.9 km/h 97 % 0.3 in /  7.62 mm
13:27 8.5 °F /  -13.1 °C 8.1 °F /  -13.3 °C 1016.5 in /  34418.7 hPa SW 12.9 mph /  20.8 km/h 17.7 mph /  28.5 km/h 97 % 0.3 in /  7.62 mm
13:32 8.6 °F /  -13 °C 8.2 °F /  -13.2 °C 1016.1 in /  34405.1 hPa SSW 4.8 mph /  7.7 km/h 17.7 mph /  28.5 km/h 97 % 0.3 in /  7.62 mm
13:37 8.6 °F /  -13 °C 8.2 °F /  -13.2 °C 1016.1 in /  34405.1 hPa WSW 12.9 mph /  20.8 km/h 17.7 mph /  28.5 km/h 97 % 0.3 in /  7.62 mm
13:42 8.6 °F /  -13 °C 8.2 °F /  -13.2 °C 1016.1 in /  34405.1 hPa WSW 8.0 mph /  12.9 km/h 17.7 mph /  28.5 km/h 97 % 0.3 in /  7.62 mm
13:47 8.7 °F /  -12.9 °C 8.3 °F /  -13.2 °C 1016.1 in /  34405.1 hPa SW 9.7 mph /  15.6 km/h 16.1 mph /  25.9 km/h 97 % 0.0 in /  0 mm
13:52 8.7 °F /  -12.9 °C 8.3 °F /  -13.2 °C 1016.1 in /  34405.1 hPa South 8.0 mph /  12.9 km/h 16.1 mph /  25.9 km/h 97 % 0.0 in /  0 mm
13:57 8.7 °F /  -12.9 °C 8.3 °F /  -13.2 °C 1016.1 in /  34405.1 hPa SSW 6.4 mph /  10.3 km/h 16.1 mph /  25.9 km/h 97 % 0.0 in /  0 mm
14:02 8.7 °F /  -12.9 °C 8.3 °F /  -13.2 °C 1016.1 in /  34405.1 hPa SSW 6.4 mph /  10.3 km/h 16.1 mph /  25.9 km/h 97 % 0.0 in /  0 mm
14:07 8.7 °F /  -12.9 °C 8.3 °F /  -13.2 °C 1016.1 in /  34405.1 hPa WSW 8.0 mph /  12.9 km/h 16.1 mph /  25.9 km/h 97 % 0.0 in /  0 mm
14:12 8.8 °F /  -12.9 °C 8.3 °F /  -13.2 °C 1016.1 in /  34405.1 hPa SW 3.2 mph /  5.1 km/h 16.1 mph /  25.9 km/h 97 % 0.0 in /  0 mm
14:17 8.8 °F /  -12.9 °C 8.3 °F /  -13.2 °C 1016.1 in /  34405.1 hPa SW 4.8 mph /  7.7 km/h 16.1 mph /  25.9 km/h 97 % 0.0 in /  0 mm
14:22 8.8 °F /  -12.9 °C 8.3 °F /  -13.2 °C 1016.1 in /  34405.1 hPa SW 4.8 mph /  7.7 km/h 16.1 mph /  25.9 km/h 97 % 0.0 in /  0 mm
14:27 8.8 °F /  -12.9 °C 8.3 °F /  -13.2 °C 1016.1 in /  34405.1 hPa SSW 4.8 mph /  7.7 km/h 14.5 mph /  23.3 km/h 97 % 0.0 in /  0 mm
14:32 8.8 °F /  -12.9 °C 8.3 °F /  -13.2 °C 1016.1 in /  34405.1 hPa SW 4.8 mph /  7.7 km/h 14.5 mph /  23.3 km/h 97 % 0.0 in /  0 mm
14:37 8.8 °F /  -12.9 °C 8.3 °F /  -13.2 °C 1016.1 in /  34405.1 hPa SSW 6.4 mph /  10.3 km/h 14.5 mph /  23.3 km/h 97 % 0.0 in /  0 mm
14:42 8.9 °F /  -12.8 °C 8.4 °F /  -13.1 °C 1015.8 in /  34395 hPa SW 3.2 mph /  5.1 km/h 14.5 mph /  23.3 km/h 97 % 0.0 in /  0 mm
14:47 8.9 °F /  -12.8 °C 8.4 °F /  -13.1 °C 1015.8 in /  34395 hPa SSW 6.4 mph /  10.3 km/h 12.9 mph /  20.8 km/h 97 % 0.0 in /  0 mm
14:52 8.9 °F /  -12.8 °C 8.4 °F /  -13.1 °C 1015.8 in /  34395 hPa SSW 8.0 mph /  12.9 km/h 12.9 mph /  20.8 km/h 97 % 0.0 in /  0 mm
14:57 8.9 °F /  -12.8 °C 8.4 °F /  -13.1 °C 1015.8 in /  34395 hPa SW 6.4 mph /  10.3 km/h 11.3 mph /  18.2 km/h 97 % 0.3 in /  7.62 mm
15:02 8.9 °F /  -12.8 °C 8.4 °F /  -13.1 °C 1015.8 in /  34395 hPa SW 4.8 mph /  7.7 km/h 11.3 mph /  18.2 km/h 97 % 0.3 in /  7.62 mm
15:12 8.9 °F /  -12.8 °C 8.4 °F /  -13.1 °C 1015.8 in /  34395 hPa SW 8.0 mph /  12.9 km/h 11.3 mph /  18.2 km/h 97 % 0.3 in /  7.62 mm
15:17 8.9 °F /  -12.8 °C 8.6 °F /  -13 °C 1015.8 in /  34395 hPa SSW 8.0 mph /  12.9 km/h 14.5 mph /  23.3 km/h 98 % 0.3 in /  7.62 mm
15:22 9.1 °F /  -12.7 °C 8.8 °F /  -12.9 °C 1015.8 in /  34395 hPa SW 8.0 mph /  12.9 km/h 14.5 mph /  23.3 km/h 98 % 0.3 in /  7.62 mm
15:32 9.2 °F /  -12.7 °C 8.9 °F /  -12.8 °C 1015.8 in /  34395 hPa South 3.2 mph /  5.1 km/h 14.5 mph /  23.3 km/h 98 % 0.5 in /  12.7 mm
15:37 9.2 °F /  -12.7 °C 8.9 °F /  -12.8 °C 1015.8 in /  34395 hPa WSW 12.9 mph /  20.8 km/h 14.5 mph /  23.3 km/h 98 % 0.5 in /  12.7 mm
15:42 9.2 °F /  -12.7 °C 8.9 °F /  -12.8 °C 1015.8 in /  34395 hPa SW 8.0 mph /  12.9 km/h 14.5 mph /  23.3 km/h 98 % 0.5 in /  12.7 mm
15:47 9.3 °F /  -12.6 °C 9.0 °F /  -12.8 °C 1015.8 in /  34395 hPa SW 8.0 mph /  12.9 km/h 14.5 mph /  23.3 km/h 98 % 0.5 in /  12.7 mm
15:52 9.3 °F /  -12.6 °C 9.0 °F /  -12.8 °C 1015.8 in /  34395 hPa SW 9.7 mph /  15.6 km/h 14.5 mph /  23.3 km/h 98 % 0.5 in /  12.7 mm
15:57 9.3 °F /  -12.6 °C 8.8 °F /  -12.9 °C 1015.8 in /  34395 hPa SSW 8.0 mph /  12.9 km/h 14.5 mph /  23.3 km/h 97 % 0.5 in /  12.7 mm
16:02 9.3 °F /  -12.6 °C 8.8 °F /  -12.9 °C 1015.8 in /  34395 hPa SSW 6.4 mph /  10.3 km/h 16.1 mph /  25.9 km/h 97 % 0.8 in /  20.32 mm
16:07 9.3 °F /  -12.6 °C 8.8 °F /  -12.9 °C 1015.8 in /  34395 hPa SW 11.3 mph /  18.2 km/h 16.1 mph /  25.9 km/h 97 % 0.8 in /  20.32 mm
16:12 9.3 °F /  -12.6 °C 8.8 °F /  -12.9 °C 1015.8 in /  34395 hPa SW 9.7 mph /  15.6 km/h 16.1 mph /  25.9 km/h 97 % 0.8 in /  20.32 mm
16:17 9.4 °F /  -12.6 °C 8.9 °F /  -12.8 °C 1015.8 in /  34395 hPa SW 8.0 mph /  12.9 km/h 12.9 mph /  20.8 km/h 97 % 1.0 in /  25.4 mm
16:22 9.4 °F /  -12.6 °C 8.9 °F /  -12.8 °C 1015.8 in /  34395 hPa SSW 6.4 mph /  10.3 km/h 14.5 mph /  23.3 km/h 97 % 1.0 in /  25.4 mm
16:27 9.4 °F /  -12.6 °C 8.9 °F /  -12.8 °C 1015.8 in /  34395 hPa WSW 14.5 mph /  23.3 km/h 14.5 mph /  23.3 km/h 97 % 0.8 in /  20.32 mm
16:32 9.4 °F /  -12.6 °C 8.9 °F /  -12.8 °C 1015.8 in /  34395 hPa SW 11.3 mph /  18.2 km/h 14.5 mph /  23.3 km/h 97 % 0.8 in /  20.32 mm
16:37 9.4 °F /  -12.6 °C 8.9 °F /  -12.8 °C 1015.8 in /  34395 hPa SW 9.7 mph /  15.6 km/h 16.1 mph /  25.9 km/h 97 % 0.8 in /  20.32 mm
16:42 9.4 °F /  -12.6 °C 8.9 °F /  -12.8 °C 1015.8 in /  34395 hPa SW 6.4 mph /  10.3 km/h 16.1 mph /  25.9 km/h 97 % 0.8 in /  20.32 mm
16:47 9.4 °F /  -12.6 °C 8.9 °F /  -12.8 °C 1015.8 in /  34395 hPa SW 8.0 mph /  12.9 km/h 14.5 mph /  23.3 km/h 97 % 0.8 in /  20.32 mm
16:57 9.4 °F /  -12.6 °C 8.9 °F /  -12.8 °C 1015.8 in /  34395 hPa WSW 6.4 mph /  10.3 km/h 16.1 mph /  25.9 km/h 97 % 0.5 in /  12.7 mm
17:02 9.4 °F /  -12.6 °C 8.9 °F /  -12.8 °C 1015.8 in /  34395 hPa SW 11.3 mph /  18.2 km/h 16.1 mph /  25.9 km/h 97 % 0.5 in /  12.7 mm
17:22 9.4 °F /  -12.6 °C 8.9 °F /  -12.8 °C 1015.8 in /  34395 hPa SSW 6.4 mph /  10.3 km/h 12.9 mph /  20.8 km/h 97 % 0.5 in /  12.7 mm
17:27 9.4 °F /  -12.6 °C 8.9 °F /  -12.8 °C 1015.8 in /  34395 hPa SSW 6.4 mph /  10.3 km/h 12.9 mph /  20.8 km/h 97 % 0.5 in /  12.7 mm
17:37 9.4 °F /  -12.6 °C 8.9 °F /  -12.8 °C 1016.1 in /  34405.1 hPa SW 8.0 mph /  12.9 km/h 12.9 mph /  20.8 km/h 97 % 0.5 in /  12.7 mm
17:42 9.4 °F /  -12.6 °C 8.9 °F /  -12.8 °C 1016.1 in /  34405.1 hPa SSW 4.8 mph /  7.7 km/h 12.9 mph /  20.8 km/h 97 % 0.5 in /  12.7 mm
17:47 9.3 °F /  -12.6 °C 8.8 °F /  -12.9 °C 1016.1 in /  34405.1 hPa SW 6.4 mph /  10.3 km/h 12.9 mph /  20.8 km/h 97 % 0.3 in /  7.62 mm
17:52 9.4 °F /  -12.6 °C 8.9 °F /  -12.8 °C 1016.1 in /  34405.1 hPa SW 9.7 mph /  15.6 km/h 12.9 mph /  20.8 km/h 97 % 0.3 in /  7.62 mm
17:57 9.3 °F /  -12.6 °C 8.8 °F /  -12.9 °C 1016.1 in /  34405.1 hPa SW 6.4 mph /  10.3 km/h 12.9 mph /  20.8 km/h 97 % 0.3 in /  7.62 mm
18:02 9.2 °F /  -12.7 °C 8.7 °F /  -12.9 °C 1016.1 in /  34405.1 hPa SSW 3.2 mph /  5.1 km/h 12.9 mph /  20.8 km/h 97 % 0.3 in /  7.62 mm
18:12 9.2 °F /  -12.7 °C 8.7 °F /  -12.9 °C 1016.1 in /  34405.1 hPa SW 8.0 mph /  12.9 km/h 12.9 mph /  20.8 km/h 97 % 0.3 in /  7.62 mm
18:17 9.2 °F /  -12.7 °C 8.7 °F /  -12.9 °C 1016.1 in /  34405.1 hPa SW 9.7 mph /  15.6 km/h 14.5 mph /  23.3 km/h 97 % 0.0 in /  0 mm
18:32 9.4 °F /  -12.6 °C 9.1 °F /  -12.7 °C 1016.1 in /  34405.1 hPa SW 6.4 mph /  10.3 km/h 14.5 mph /  23.3 km/h 98 % 0.0 in /  0 mm
18:47 9.5 °F /  -12.5 °C 9.2 °F /  -12.7 °C 1016.1 in /  34405.1 hPa SSW 3.2 mph /  5.1 km/h 14.5 mph /  23.3 km/h 98 % 0.0 in /  0 mm
19:07 9.6 °F /  -12.4 °C 9.3 °F /  -12.6 °C 1016.5 in /  34418.7 hPa SW 9.7 mph /  15.6 km/h 19.3 mph /  31.1 km/h 98 % 0.0 in /  0 mm
19:12 9.6 °F /  -12.4 °C 9.1 °F /  -12.7 °C 1016.5 in /  34418.7 hPa WSW 3.2 mph /  5.1 km/h 19.3 mph /  31.1 km/h 97 % 0.0 in /  0 mm
19:17 9.6 °F /  -12.4 °C 9.1 °F /  -12.7 °C 1016.5 in /  34418.7 hPa SW 6.4 mph /  10.3 km/h 19.3 mph /  31.1 km/h 97 % 0.3 in /  7.62 mm
19:22 9.6 °F /  -12.4 °C 9.1 °F /  -12.7 °C 1016.5 in /  34418.7 hPa SW 11.3 mph /  18.2 km/h 19.3 mph /  31.1 km/h 97 % 0.3 in /  7.62 mm
19:27 9.6 °F /  -12.4 °C 9.1 °F /  -12.7 °C 1016.5 in /  34418.7 hPa West 4.8 mph /  7.7 km/h 12.9 mph /  20.8 km/h 97 % 0.3 in /  7.62 mm
19:32 9.6 °F /  -12.4 °C 9.1 °F /  -12.7 °C 1016.5 in /  34418.7 hPa WSW 12.9 mph /  20.8 km/h 12.9 mph /  20.8 km/h 97 % 0.3 in /  7.62 mm
19:37 9.6 °F /  -12.4 °C 9.1 °F /  -12.7 °C 1016.5 in /  34418.7 hPa SW 1.6 mph /  2.6 km/h 16.1 mph /  25.9 km/h 97 % 0.3 in /  7.62 mm
19:42 9.6 °F /  -12.4 °C 9.1 °F /  -12.7 °C 1016.5 in /  34418.7 hPa SW 6.4 mph /  10.3 km/h 16.1 mph /  25.9 km/h 97 % 0.3 in /  7.62 mm
19:47 9.6 °F /  -12.4 °C 9.1 °F /  -12.7 °C 1016.8 in /  34428.8 hPa SSW 6.4 mph /  10.3 km/h 16.1 mph /  25.9 km/h 97 % 0.3 in /  7.62 mm
19:52 9.6 °F /  -12.4 °C 9.1 °F /  -12.7 °C 1016.8 in /  34428.8 hPa SW 11.3 mph /  18.2 km/h 16.1 mph /  25.9 km/h 97 % 0.3 in /  7.62 mm
19:57 9.5 °F /  -12.5 °C 9.2 °F /  -12.7 °C 1016.8 in /  34428.8 hPa WSW 8.0 mph /  12.9 km/h 16.1 mph /  25.9 km/h 98 % 0.3 in /  7.62 mm
20:02 9.5 °F /  -12.5 °C 9.2 °F /  -12.7 °C 1016.8 in /  34428.8 hPa WSW 8.0 mph /  12.9 km/h 16.1 mph /  25.9 km/h 98 % 0.3 in /  7.62 mm
20:12 9.5 °F /  -12.5 °C 9.2 °F /  -12.7 °C 1016.8 in /  34428.8 hPa WSW 4.8 mph /  7.7 km/h 16.1 mph /  25.9 km/h 98 % 0.3 in /  7.62 mm
20:17 9.5 °F /  -12.5 °C 9.2 °F /  -12.7 °C 1016.8 in /  34428.8 hPa WSW 9.7 mph /  15.6 km/h 16.1 mph /  25.9 km/h 98 % 0.0 in /  0 mm
20:27 9.4 °F /  -12.6 °C 9.1 °F /  -12.7 °C 1016.8 in /  34428.8 hPa SW 4.8 mph /  7.7 km/h 14.5 mph /  23.3 km/h 98 % 0.0 in /  0 mm
20:32 9.3 °F /  -12.6 °C 8.8 °F /  -12.9 °C 1016.8 in /  34428.8 hPa SW 8.0 mph /  12.9 km/h 14.5 mph /  23.3 km/h 97 % 0.0 in /  0 mm
20:37 9.3 °F /  -12.6 °C 9.0 °F /  -12.8 °C 1016.8 in /  34428.8 hPa SSW 3.2 mph /  5.1 km/h 14.5 mph /  23.3 km/h 98 % 0.0 in /  0 mm
20:42 9.3 °F /  -12.6 °C 9.0 °F /  -12.8 °C 1016.8 in /  34428.8 hPa SSW 4.8 mph /  7.7 km/h 14.5 mph /  23.3 km/h 98 % 0.0 in /  0 mm
20:47 9.3 °F /  -12.6 °C 9.0 °F /  -12.8 °C 1016.8 in /  34428.8 hPa WSW 8.0 mph /  12.9 km/h 11.3 mph /  18.2 km/h 98 % 0.0 in /  0 mm
20:52 9.3 °F /  -12.6 °C 9.0 °F /  -12.8 °C 1016.8 in /  34428.8 hPa SW 8.0 mph /  12.9 km/h 11.3 mph /  18.2 km/h 98 % 0.0 in /  0 mm
20:57 9.3 °F /  -12.6 °C 9.0 °F /  -12.8 °C 1016.8 in /  34428.8 hPa SW 4.8 mph /  7.7 km/h 9.7 mph /  15.6 km/h 98 % 0.0 in /  0 mm
21:02 9.3 °F /  -12.6 °C 9.0 °F /  -12.8 °C 1016.8 in /  34428.8 hPa SSW 3.2 mph /  5.1 km/h 12.9 mph /  20.8 km/h 98 % 0.0 in /  0 mm
21:07 9.4 °F /  -12.6 °C 9.1 °F /  -12.7 °C 1017.2 in /  34442.4 hPa WSW 8.0 mph /  12.9 km/h 12.9 mph /  20.8 km/h 98 % 0.0 in /  0 mm
21:17 9.4 °F /  -12.6 °C 9.1 °F /  -12.7 °C 1016.8 in /  34428.8 hPa SW 4.8 mph /  7.7 km/h 12.9 mph /  20.8 km/h 98 % 0.0 in /  0 mm
21:22 9.4 °F /  -12.6 °C 9.1 °F /  -12.7 °C 1016.8 in /  34428.8 hPa SSW 4.8 mph /  7.7 km/h 12.9 mph /  20.8 km/h 98 % 0.0 in /  0 mm
21:32 9.4 °F /  -12.6 °C 9.1 °F /  -12.7 °C 1016.8 in /  34428.8 hPa SW 6.4 mph /  10.3 km/h 12.9 mph /  20.8 km/h 98 % 0.0 in /  0 mm
21:37 9.4 °F /  -12.6 °C 9.1 °F /  -12.7 °C 1016.8 in /  34428.8 hPa WSW 3.2 mph /  5.1 km/h 12.9 mph /  20.8 km/h 98 % 0.0 in /  0 mm
21:42 9.3 °F /  -12.6 °C 9.0 °F /  -12.8 °C 1016.8 in /  34428.8 hPa SW 4.8 mph /  7.7 km/h 12.9 mph /  20.8 km/h 98 % 0.0 in /  0 mm
21:47 9.1 °F /  -12.7 °C 8.8 °F /  -12.9 °C 1016.8 in /  34428.8 hPa SW 4.8 mph /  7.7 km/h 12.9 mph /  20.8 km/h 98 % 0.0 in /  0 mm
21:52 8.9 °F /  -12.8 °C 8.4 °F /  -13.1 °C 1016.8 in /  34428.8 hPa SW 4.8 mph /  7.7 km/h 12.9 mph /  20.8 km/h 97 % 0.0 in /  0 mm
21:57 8.8 °F /  -12.9 °C 8.5 °F /  -13.1 °C 1016.8 in /  34428.8 hPa SW 3.2 mph /  5.1 km/h 8.0 mph /  12.9 km/h 98 % 0.0 in /  0 mm
22:02 8.8 °F /  -12.9 °C 8.5 °F /  -13.1 °C 1016.8 in /  34428.8 hPa SSW 1.6 mph /  2.6 km/h 8.0 mph /  12.9 km/h 98 % 0.0 in /  0 mm
22:12 8.7 °F /  -12.9 °C 8.4 °F /  -13.1 °C 1016.8 in /  34428.8 hPa SSW 3.2 mph /  5.1 km/h 4.8 mph /  7.7 km/h 98 % 0.0 in /  0 mm
22:17 8.7 °F /  -12.9 °C 8.4 °F /  -13.1 °C 1017.2 in /  34442.4 hPa SW 6.4 mph /  10.3 km/h 6.4 mph /  10.3 km/h 98 % 0.0 in /  0 mm
22:22 8.7 °F /  -12.9 °C 8.4 °F /  -13.1 °C 1016.8 in /  34428.8 hPa SW 3.2 mph /  5.1 km/h 8.0 mph /  12.9 km/h 98 % 0.0 in /  0 mm
22:32 8.7 °F /  -12.9 °C 8.4 °F /  -13.1 °C 1017.2 in /  34442.4 hPa SW 4.8 mph /  7.7 km/h 9.7 mph /  15.6 km/h 98 % 0.0 in /  0 mm
22:37 8.8 °F /  -12.9 °C 8.5 °F /  -13.1 °C 1017.2 in /  34442.4 hPa SW 6.4 mph /  10.3 km/h 9.7 mph /  15.6 km/h 98 % 0.0 in /  0 mm
22:42 8.7 °F /  -12.9 °C 8.4 °F /  -13.1 °C 1016.8 in /  34428.8 hPa SW 8.0 mph /  12.9 km/h 9.7 mph /  15.6 km/h 98 % 0.0 in /  0 mm
22:47 8.7 °F /  -12.9 °C 8.4 °F /  -13.1 °C 1016.8 in /  34428.8 hPa SW 3.2 mph /  5.1 km/h 9.7 mph /  15.6 km/h 98 % 0.0 in /  0 mm
22:52 8.6 °F /  -13 °C 8.3 °F /  -13.2 °C 1016.8 in /  34428.8 hPa SW 6.4 mph /  10.3 km/h 9.7 mph /  15.6 km/h 98 % 0.0 in /  0 mm
22:57 8.8 °F /  -12.9 °C 8.5 °F /  -13.1 °C 1016.8 in /  34428.8 hPa SW 6.4 mph /  10.3 km/h 11.3 mph /  18.2 km/h 98 % 0.0 in /  0 mm
23:02 8.8 °F /  -12.9 °C 8.5 °F /  -13.1 °C 1016.8 in /  34428.8 hPa SSW 6.4 mph /  10.3 km/h 8.0 mph /  12.9 km/h 98 % 0.3 in /  7.62 mm
23:12 8.7 °F /  -12.9 °C 8.4 °F /  -13.1 °C 1016.8 in /  34428.8 hPa SW 6.4 mph /  10.3 km/h 12.9 mph /  20.8 km/h 98 % 0.5 in /  12.7 mm
23:17 8.7 °F /  -12.9 °C 8.4 °F /  -13.1 °C 1016.8 in /  34428.8 hPa SW 8.0 mph /  12.9 km/h 12.9 mph /  20.8 km/h 98 % 0.8 in /  20.32 mm
23:22 8.7 °F /  -12.9 °C 8.4 °F /  -13.1 °C 1016.8 in /  34428.8 hPa South 4.8 mph /  7.7 km/h 12.9 mph /  20.8 km/h 98 % 0.8 in /  20.32 mm
23:32 8.7 °F /  -12.9 °C 8.4 °F /  -13.1 °C 1016.8 in /  34428.8 hPa SW 9.7 mph /  15.6 km/h 12.9 mph /  20.8 km/h 98 % 0.8 in /  20.32 mm
23:37 8.7 °F /  -12.9 °C 8.4 °F /  -13.1 °C 1016.8 in /  34428.8 hPa SW 4.8 mph /  7.7 km/h 12.9 mph /  20.8 km/h 98 % 1.0 in /  25.4 mm
23:42 8.7 °F /  -12.9 °C 8.4 °F /  -13.1 °C 1016.8 in /  34428.8 hPa SSW 12.9 mph /  20.8 km/h 12.9 mph /  20.8 km/h 98 % 1.0 in /  25.4 mm
23:47 8.7 °F /  -12.9 °C 8.4 °F /  -13.1 °C 1016.8 in /  34428.8 hPa SW 11.3 mph /  18.2 km/h 14.5 mph /  23.3 km/h 98 % 1.3 in /  33.02 mm
23:52 8.8 °F /  -12.9 °C 8.5 °F /  -13.1 °C 1016.8 in /  34428.8 hPa SSW 4.8 mph /  7.7 km/h 14.5 mph /  23.3 km/h 98 % 1.3 in /  33.02 mm
23:57 8.8 °F /  -12.9 °C 8.5 °F /  -13.1 °C 1016.8 in /  34428.8 hPa SW 9.7 mph /  15.6 km/h 16.1 mph /  25.9 km/h 98 % 1.3 in /  33.02 mm
Meteo18
Compliments of Weather Underground - 4 mb

Script developed by  Jim McMurry - jmcmurry@mwt.net Adapted for the template by  Wim van der Kuil - Leuven-Template.eu

You find our weather info also at:

European Weather Network

Weather Underground

Equipment we use:

Weather-station
Davis Vue

Weather-program
Meteobridge

Weather-server
Raspberry PI 2 B+

Provider
1 and 1

Davis Vue

Meteobridge

Raspberry PI 2 B+

1 and 1